createdAt,value
2019-04-04T00:01:30.327Z,9.90
2019-04-04T00:03:56.758Z,10.20
2019-04-04T00:06:26.685Z,9.80
2019-04-04T00:08:52.282Z,9.70
2019-04-04T00:11:19.566Z,9.70
2019-04-04T00:13:47.878Z,9.70
2019-04-04T00:16:16.085Z,9.60
2019-04-04T00:18:45.171Z,9.60
2019-04-04T00:21:12.073Z,9.50
2019-04-04T00:23:39.513Z,9.50
2019-04-04T00:26:06.410Z,9.50
2019-04-04T00:28:33.319Z,9.50
2019-04-04T00:31:00.079Z,9.40
2019-04-04T00:33:26.783Z,9.40
2019-04-04T00:35:53.432Z,10.10
2019-04-04T00:38:21.033Z,9.40
2019-04-04T00:40:47.762Z,9.50
2019-04-04T00:43:14.614Z,9.60
2019-04-04T00:45:41.320Z,9.50
2019-04-04T00:48:09.333Z,9.50
2019-04-04T00:50:36.748Z,9.50
2019-04-04T00:53:04.971Z,9.50
2019-04-04T00:55:31.751Z,9.60
2019-04-04T00:58:03.348Z,9.60
2019-04-04T01:00:30.373Z,9.50
2019-04-04T01:02:58.349Z,9.50
2019-04-04T01:05:25.305Z,9.50
2019-04-04T01:07:52.294Z,9.60
2019-04-04T01:10:19.630Z,9.90
2019-04-04T01:13:07.693Z,9.60
2019-04-04T01:15:50.615Z,9.60
2019-04-04T01:18:17.880Z,9.60
2019-04-04T01:20:44.422Z,9.60
2019-04-04T01:23:11.277Z,9.50
2019-04-04T01:25:39.520Z,9.50
2019-04-04T01:28:08.129Z,9.50
2019-04-04T01:30:36.570Z,9.40
2019-04-04T01:33:03.758Z,10.50
2019-04-04T01:35:31.737Z,9.40
2019-04-04T01:37:58.854Z,9.40
2019-04-04T01:40:26.723Z,9.40
2019-04-04T01:42:53.615Z,9.30
2019-04-04T01:45:20.512Z,9.30
2019-04-04T01:47:47.986Z,9.20
2019-04-04T01:50:15.169Z,9.20
2019-04-04T01:52:43.110Z,9.00
2019-04-04T01:55:09.630Z,8.90
2019-04-04T01:57:40.927Z,8.90
2019-04-04T02:00:14.772Z,8.80
2019-04-04T02:02:41.420Z,8.80
2019-04-04T02:05:08.725Z,8.80
2019-04-04T02:07:36.495Z,8.60
2019-04-04T02:10:05.963Z,8.50
2019-04-04T02:12:33.219Z,8.60
2019-04-04T02:14:59.748Z,8.60
2019-04-04T02:17:26.292Z,8.60
2019-04-04T02:19:55.476Z,8.70
2019-04-04T02:22:23.080Z,8.70
2019-04-04T02:24:50.282Z,8.60
2019-04-04T02:27:16.746Z,8.70
2019-04-04T02:29:45.122Z,8.70
2019-04-04T02:32:19.018Z,8.70
2019-04-04T02:34:46.323Z,8.70
2019-04-04T02:37:13.513Z,8.70
2019-04-04T02:39:40.176Z,8.70
2019-04-04T02:42:09.181Z,8.70
2019-04-04T02:44:36.208Z,8.70
2019-04-04T02:47:04.016Z,8.50
2019-04-04T02:49:32.879Z,8.50
2019-04-04T02:52:01.322Z,8.50
2019-04-04T02:54:28.202Z,8.40
2019-04-04T02:56:55.701Z,8.40
2019-04-04T02:59:26.145Z,8.40
2019-04-04T03:01:53.114Z,8.40
2019-04-04T03:04:20.033Z,8.40
2019-04-04T03:06:46.891Z,8.30
2019-04-04T03:09:21.629Z,8.30
2019-04-04T03:11:53.615Z,8.30
2019-04-04T03:14:18.366Z,8.20
2019-04-04T03:16:44.988Z,8.10
2019-04-04T03:19:11.804Z,8.10
2019-04-04T03:21:41.341Z,8.20
2019-04-04T03:24:12.540Z,8.00
2019-04-04T03:26:42.262Z,8.10
2019-04-04T03:29:10.622Z,8.00
2019-04-04T03:31:38.987Z,8.00
2019-04-04T03:34:11.417Z,7.90
2019-04-04T03:36:36.816Z,7.90
2019-04-04T03:39:06.480Z,7.90
2019-04-04T03:41:35.790Z,7.80
2019-04-04T03:44:03.396Z,7.80
2019-04-04T03:46:37.712Z,8.10
2019-04-04T03:49:00.926Z,7.80
2019-04-04T03:51:47.162Z,7.70
2019-04-04T03:54:25.005Z,7.70
2019-04-04T03:56:52.754Z,7.70
2019-04-04T03:59:19.821Z,7.60
2019-04-04T04:01:47.015Z,7.60
2019-04-04T04:04:14.297Z,7.60
2019-04-04T04:06:42.148Z,7.60
2019-04-04T04:09:09.498Z,7.60
2019-04-04T04:11:37.539Z,7.50
2019-04-04T04:14:04.765Z,7.40
2019-04-04T04:16:34.885Z,7.40
2019-04-04T04:19:00.771Z,7.40
2019-04-04T04:21:27.920Z,7.30
2019-04-04T04:23:58.105Z,7.20
2019-04-04T04:26:25.203Z,7.20
2019-04-04T04:28:53.237Z,7.30
2019-04-04T04:31:20.752Z,7.00
2019-04-04T04:33:49.563Z,7.30
2019-04-04T04:36:17.208Z,8.10
2019-04-04T04:38:44.612Z,7.40
2019-04-04T04:41:11.654Z,7.30
2019-04-04T04:43:38.282Z,7.30
2019-04-04T04:46:04.848Z,7.20
2019-04-04T04:48:32.014Z,7.40
2019-04-04T04:50:59.689Z,7.30
2019-04-04T04:53:26.309Z,7.40
2019-04-04T04:55:52.891Z,7.50
2019-04-04T04:58:19.586Z,7.50
2019-04-04T05:00:47.287Z,7.60
2019-04-04T05:03:16.254Z,7.60
2019-04-04T05:05:44.065Z,7.70
2019-04-04T05:08:10.773Z,7.70
2019-04-04T05:10:41.955Z,7.70
2019-04-04T05:13:20.063Z,7.70
2019-04-04T05:15:46.851Z,8.10
2019-04-04T05:18:16.334Z,7.90
2019-04-04T05:20:44.921Z,7.90
2019-04-04T05:23:15.188Z,7.90
2019-04-04T05:25:53.452Z,7.90
2019-04-04T05:28:12.720Z,8.00
2019-04-04T05:30:40.295Z,8.10
2019-04-04T05:33:07.492Z,8.10
2019-04-04T05:35:37.689Z,8.10
2019-04-04T05:38:06.370Z,8.20
2019-04-04T05:40:33.759Z,8.20
2019-04-04T05:43:03.946Z,8.30
2019-04-04T05:45:30.806Z,8.30
2019-04-04T05:47:59.729Z,8.30
2019-04-04T05:50:26.133Z,8.40
2019-04-04T05:52:53.096Z,8.40
2019-04-04T05:55:26.786Z,9.60
2019-04-04T05:57:54.507Z,8.50
2019-04-04T06:00:22.078Z,8.60
2019-04-04T06:02:48.778Z,8.70
2019-04-04T06:05:18.309Z,8.80
2019-04-04T06:07:45.339Z,8.80
2019-04-04T06:10:14.086Z,8.90
2019-04-04T06:12:50.959Z,9.00
2019-04-04T06:15:19.505Z,9.10
2019-04-04T06:17:48.748Z,9.20
2019-04-04T06:20:16.915Z,9.20
2019-04-04T06:22:43.726Z,9.30
2019-04-04T06:25:12.308Z,9.40
2019-04-04T06:27:40.322Z,9.40
2019-04-04T06:30:07.257Z,9.40
2019-04-04T06:32:34.231Z,10.20
2019-04-04T06:35:01.903Z,9.50
2019-04-04T06:37:29.543Z,9.60
2019-04-04T06:39:58.840Z,9.60
2019-04-04T06:42:26.128Z,9.70
2019-04-04T06:44:54.322Z,9.70
2019-04-04T06:47:23.133Z,9.90
2019-04-04T06:49:52.083Z,10.40
2019-04-04T06:52:23.370Z,10.10
2019-04-04T06:54:49.347Z,10.20
2019-04-04T06:57:17.612Z,10.30
2019-04-04T06:59:44.802Z,10.40
2019-04-04T07:02:12.570Z,10.40
2019-04-04T07:04:42.147Z,10.50
2019-04-04T07:07:12.510Z,10.60
2019-04-04T07:09:40.289Z,10.80
2019-04-04T07:12:07.295Z,11.00
2019-04-04T07:14:45.231Z,11.10
2019-04-04T07:17:03.032Z,11.20
2019-04-04T07:19:30.785Z,11.40
2019-04-04T07:21:57.366Z,11.50
2019-04-04T07:24:25.211Z,11.70
2019-04-04T07:26:52.832Z,11.80
2019-04-04T07:29:23.015Z,11.80
2019-04-04T07:31:51.745Z,12.00
2019-04-04T07:34:24.477Z,12.10
2019-04-04T07:36:53.272Z,12.10
2019-04-04T07:39:35.383Z,12.30
2019-04-04T07:42:04.738Z,12.20
2019-04-04T07:44:31.877Z,13.20
2019-04-04T07:47:00.215Z,12.50
2019-04-04T07:49:27.972Z,13.10
2019-04-04T07:51:55.228Z,13.30
2019-04-04T07:54:23.933Z,12.80
2019-04-04T07:56:51.750Z,12.80
2019-04-04T07:59:18.337Z,12.90
2019-04-04T08:01:50.963Z,13.00
2019-04-04T08:04:14.129Z,13.70
2019-04-04T08:06:42.250Z,13.20
2019-04-04T08:09:09.413Z,13.20
2019-04-04T08:11:36.239Z,13.30
2019-04-04T08:14:03.929Z,13.40
2019-04-04T08:16:30.704Z,13.40
2019-04-04T08:18:59.652Z,13.30
2019-04-04T08:21:26.328Z,13.30
2019-04-04T08:23:53.068Z,13.40
2019-04-04T08:26:32.040Z,13.60
2019-04-04T08:28:59.988Z,13.80
2019-04-04T08:31:27.982Z,14.60
2019-04-04T08:33:55.646Z,14.00
2019-04-04T08:36:23.338Z,14.10
2019-04-04T08:38:49.894Z,14.20
2019-04-04T08:41:16.373Z,14.40
2019-04-04T08:43:43.759Z,14.60
2019-04-04T08:46:12.368Z,14.80
2019-04-04T08:48:38.788Z,15.40
2019-04-04T08:51:05.902Z,14.90
2019-04-04T08:53:40.332Z,15.10
2019-04-04T08:56:03.371Z,15.30
2019-04-04T08:58:31.167Z,15.50
2019-04-04T09:01:00.133Z,15.60
2019-04-04T09:03:29.220Z,15.80
2019-04-04T09:05:56.994Z,16.20
2019-04-04T09:08:24.152Z,17.00
2019-04-04T09:10:52.981Z,17.80
2019-04-04T09:13:20.317Z,19.20
2019-04-04T09:15:47.397Z,20.50
2019-04-04T09:18:14.531Z,20.80
2019-04-04T09:20:43.639Z,21.00
2019-04-04T09:23:10.504Z,21.20
2019-04-04T09:25:40.742Z,21.40
2019-04-04T09:28:07.195Z,21.80
2019-04-04T09:30:34.521Z,22.50
2019-04-04T09:33:01.083Z,22.90
2019-04-04T09:35:28.324Z,23.70
2019-04-04T09:38:03.672Z,24.10
2019-04-04T09:40:33.170Z,23.60
2019-04-04T09:43:00.230Z,22.80
2019-04-04T09:45:28.003Z,22.20
2019-04-04T09:47:54.654Z,21.70
2019-04-04T09:50:21.793Z,22.10
2019-04-04T09:52:49.342Z,21.60
2019-04-04T09:55:16.106Z,21.40
2019-04-04T09:57:43.563Z,21.40
2019-04-04T10:00:13.990Z,22.00
2019-04-04T10:02:42.650Z,22.50
2019-04-04T10:05:11.699Z,23.80
2019-04-04T10:07:39.240Z,24.30
2019-04-04T10:10:07.082Z,24.80
2019-04-04T10:12:33.976Z,24.50
2019-04-04T10:15:00.871Z,23.70
2019-04-04T10:17:34.359Z,23.50
2019-04-04T10:20:01.530Z,23.90
2019-04-04T10:22:28.059Z,24.30
2019-04-04T10:24:55.927Z,24.00
2019-04-04T10:27:22.845Z,23.40
2019-04-04T10:29:49.413Z,22.30
2019-04-04T10:32:17.127Z,21.70
2019-04-04T10:34:45.701Z,21.90
2019-04-04T10:37:12.409Z,22.50
2019-04-04T10:39:39.951Z,23.40
2019-04-04T10:42:07.372Z,24.30
2019-04-04T10:44:36.908Z,25.20
2019-04-04T10:47:04.015Z,25.30
2019-04-04T10:49:30.935Z,26.30
2019-04-04T10:51:57.443Z,26.00
2019-04-04T10:54:25.086Z,25.30
2019-04-04T10:56:52.233Z,24.50
2019-04-04T10:59:19.640Z,24.60
2019-04-04T11:01:47.850Z,23.90
2019-04-04T11:04:15.494Z,23.40
2019-04-04T11:06:43.054Z,21.90
2019-04-04T11:09:09.951Z,21.20
2019-04-04T11:11:39.646Z,20.80
2019-04-04T11:14:07.196Z,20.90
2019-04-04T11:16:39.219Z,22.10
2019-04-04T11:19:14.868Z,23.00
2019-04-04T11:21:42.391Z,23.00
2019-04-04T11:24:09.080Z,23.50
2019-04-04T11:26:36.972Z,24.20
2019-04-04T11:29:04.820Z,25.00
2019-04-04T11:31:32.394Z,26.30
2019-04-04T11:33:59.459Z,27.30
2019-04-04T11:36:34.394Z,27.50
2019-04-04T11:39:06.131Z,27.50
2019-04-04T11:41:33.290Z,27.50
2019-04-04T11:44:00.108Z,26.60
2019-04-04T11:46:31.129Z,26.70
2019-04-04T11:48:58.347Z,26.90
2019-04-04T11:51:24.956Z,27.40
2019-04-04T11:53:53.616Z,28.10
2019-04-04T11:56:20.960Z,27.80
2019-04-04T11:58:48.984Z,27.20
2019-04-04T12:01:19.501Z,27.10
2019-04-04T12:03:47.481Z,26.60
2019-04-04T12:06:15.398Z,27.20
2019-04-04T12:08:42.172Z,26.30
2019-04-04T12:11:08.814Z,26.30
2019-04-04T12:13:35.939Z,26.60
2019-04-04T12:16:03.551Z,26.60
2019-04-04T12:18:32.242Z,26.90
2019-04-04T12:21:04.926Z,27.10
2019-04-04T12:23:33.005Z,27.30
2019-04-04T12:26:02.224Z,28.10
2019-04-04T12:28:29.399Z,28.30
2019-04-04T12:33:44.708Z,28.20
2019-04-04T12:42:03.055Z,24.90
2019-04-04T12:44:29.764Z,25.30
2019-04-04T12:46:58.019Z,25.20
2019-04-04T12:49:25.573Z,25.40
2019-04-04T12:51:58.018Z,26.40
2019-04-04T12:54:24.944Z,26.60
2019-04-04T12:56:52.238Z,26.50
2019-04-04T12:59:19.222Z,26.40
2019-04-04T13:01:58.567Z,25.90
2019-04-04T13:04:43.236Z,25.30
2019-04-04T13:07:20.849Z,25.70
2019-04-04T13:09:49.767Z,26.70
2019-04-04T13:12:20.236Z,26.30
2019-04-04T13:14:48.176Z,25.30
2019-04-04T13:20:05.662Z,24.60
2019-04-04T13:22:32.640Z,24.00
2019-04-04T13:25:05.646Z,25.10
2019-04-04T13:27:32.469Z,26.80
2019-04-04T13:29:59.355Z,27.80
2019-04-04T13:32:41.151Z,28.10
2019-04-04T13:35:13.965Z,27.90
2019-04-04T13:37:44.900Z,27.70
2019-04-04T13:40:15.474Z,27.70
2019-04-04T13:42:47.235Z,27.10
2019-04-04T13:45:15.040Z,26.60
2019-04-04T13:53:17.431Z,27.70
2019-04-04T13:55:45.031Z,26.60
2019-04-04T13:58:12.581Z,26.10
2019-04-04T14:00:45.720Z,25.60
2019-04-04T14:03:13.354Z,25.00
2019-04-04T14:05:40.038Z,24.10
2019-04-04T14:08:07.028Z,24.10
2019-04-04T14:13:20.483Z,25.40
2019-04-04T14:18:45.591Z,27.10
2019-04-04T14:21:13.106Z,27.80
2019-04-04T14:23:39.848Z,27.60
2019-04-04T14:26:06.279Z,27.50
2019-04-04T14:28:35.504Z,27.10
2019-04-04T14:31:05.187Z,25.40
2019-04-04T14:33:32.985Z,25.10
2019-04-04T14:36:00.042Z,25.90
2019-04-04T14:38:26.909Z,25.50
2019-04-04T14:41:11.382Z,25.80
2019-04-04T14:43:52.531Z,26.40
2019-04-04T14:46:25.603Z,26.60
2019-04-04T14:48:53.800Z,27.10
2019-04-04T14:51:36.497Z,27.30
2019-04-04T14:54:06.929Z,26.80
2019-04-04T15:05:14.626Z,24.20
2019-04-04T15:07:45.545Z,23.90
2019-04-04T15:10:14.912Z,23.90
2019-04-04T15:12:41.755Z,24.30
2019-04-04T15:15:15.471Z,24.40
2019-04-04T15:20:39.671Z,25.70
2019-04-04T15:23:09.517Z,26.00
2019-04-04T15:31:17.200Z,26.60
2019-04-04T15:36:33.051Z,24.80
2019-04-04T15:39:00.392Z,24.10
2019-04-04T15:41:36.695Z,24.30
2019-04-04T15:43:56.201Z,24.60
2019-04-04T15:46:22.934Z,25.10
2019-04-04T15:48:50.188Z,25.70
2019-04-04T15:51:21.122Z,26.00
2019-04-04T15:53:50.567Z,26.20
2019-04-04T15:56:17.418Z,26.30
2019-04-04T15:58:46.099Z,26.60
2019-04-04T16:01:13.325Z,26.40
2019-04-04T16:03:40.984Z,26.60
2019-04-04T16:06:07.958Z,26.90
2019-04-04T16:08:35.590Z,26.80
2019-04-04T16:11:06.374Z,26.40
2019-04-04T16:16:25.830Z,25.70
2019-04-04T16:19:10.575Z,25.20
2019-04-04T16:21:49.615Z,24.40
2019-04-04T16:24:24.701Z,24.20
2019-04-04T16:27:11.674Z,24.00
2019-04-04T16:29:47.302Z,23.20
2019-04-04T16:32:15.727Z,23.30
2019-04-04T16:34:55.986Z,22.60
2019-04-04T16:37:23.256Z,22.10
2019-04-04T16:39:50.420Z,21.60
2019-04-04T16:42:20.595Z,21.20
2019-04-04T16:44:49.702Z,20.80
2019-04-04T16:47:16.906Z,20.50
2019-04-04T16:49:46.443Z,20.30
2019-04-04T16:52:13.840Z,20.10
2019-04-04T16:54:41.961Z,20.10
2019-04-04T16:57:16.753Z,20.00
2019-04-04T16:59:46.322Z,20.20
2019-04-04T17:05:05.565Z,20.90
2019-04-04T17:07:37.179Z,21.30
2019-04-04T17:10:12.980Z,21.30
2019-04-04T17:12:43.015Z,21.40
2019-04-04T17:15:13.502Z,22.40
2019-04-04T17:17:40.732Z,21.30
2019-04-04T17:20:08.665Z,21.80
2019-04-04T17:22:37.303Z,21.10
2019-04-04T17:25:06.136Z,20.70
2019-04-04T17:27:32.919Z,20.30
2019-04-04T17:30:03.129Z,19.70
2019-04-04T17:32:35.183Z,19.20
2019-04-04T17:35:02.949Z,18.70
2019-04-04T17:37:30.748Z,18.20
2019-04-04T17:39:58.616Z,17.90
2019-04-04T17:42:31.430Z,17.50
2019-04-04T17:45:02.287Z,17.20
2019-04-04T17:50:30.173Z,16.70
2019-04-04T17:53:19.262Z,15.30
2019-04-04T18:10:43.375Z,15.50
2019-04-04T18:33:47.210Z,14.50
2019-04-04T18:36:30.282Z,14.60
2019-04-04T18:39:02.809Z,14.40
2019-04-04T18:55:50.690Z,13.30
2019-04-04T19:07:21.457Z,12.40
2019-04-04T19:15:58.089Z,13.10
2019-04-04T19:18:54.426Z,13.20
2019-04-04T19:24:24.832Z,13.10
2019-04-04T19:26:59.355Z,12.90
2019-04-04T19:32:30.476Z,12.70
2019-04-04T20:19:33.666Z,11.60
2019-04-04T22:51:11.804Z,9.20
2019-04-04T22:53:39.145Z,8.10
2019-04-04T22:56:09.068Z,8.70
2019-04-04T22:58:36.597Z,8.70
2019-04-04T23:01:04.083Z,8.70
2019-04-04T23:03:31.190Z,8.80
2019-04-04T23:05:57.862Z,8.70
2019-04-04T23:08:26.738Z,8.80
2019-04-04T23:10:53.321Z,9.00
2019-04-04T23:13:20.038Z,9.10
2019-04-04T23:15:47.505Z,9.10
2019-04-04T23:18:14.530Z,9.90
2019-04-04T23:20:41.275Z,9.50
2019-04-04T23:23:08.019Z,9.60
2019-04-04T23:25:34.801Z,10.60
2019-04-04T23:28:03.249Z,9.80
2019-04-04T23:30:30.363Z,9.90
2019-04-04T23:33:00.607Z,10.10
2019-04-04T23:35:27.837Z,10.10
2019-04-04T23:37:55.048Z,10.20
2019-04-04T23:40:22.074Z,10.30
2019-04-04T23:42:49.827Z,10.40
2019-04-04T23:45:17.558Z,10.30
2019-04-04T23:47:44.335Z,10.30
2019-04-04T23:50:11.232Z,10.80
2019-04-04T23:52:38.595Z,10.40
2019-04-04T23:55:06.211Z,10.40
2019-04-04T23:57:32.644Z,10.50
2019-04-04T23:59:59.736Z,10.50
